West Leipsic, Ohio
Current Conditions -  °F | °C
As of 11:51 AM on Tuesday 21 Oct 2014 (Local Time) from KFDY Reporting Station
Overcast Overcast  
Wind Chill: 50°   Ceiling: 1700
Heat Index: 50°   Visibility: 10mi
Dew Point: 46°   Wind: 13mph
Humidity: 87%   Direction: 330°NNW
Pressure: 30.01"   Gusts: NA
Location:  41.1137°N, 83.9935°W
Report Text: KFDY 211551Z AUTO 33011KT 10SM SCT008 SCT012 OVC017 10/08 A3001 RMK AO2 RAB22E43 P0000
Loading
Personal Weather Stations






























Interactive Weather Map
Tropical Storm Tracking
New forecast layout! Learn more

10-Day Weather Forecast

Advertisements
Track Severe Weather on mobile